Time;durP1;ratioP1;P1;durP2;ratioP2;P2;SDS_P1;SDS_P2;PMS_P1;PMS_P2;Temp;Humidity;BMP_temperature;BMP_pressure;BME280_temperature;BME280_humidity;BME280_pressure;Samples;Min_cycle;Max_cycle;Signal;HPM_P1;HPM_P2
2022/03/14 00:01:30;;;;;;;9.93;5.70;;;5.40;60.60;;;;;;4995613;28;20183;-85
2022/03/14 00:03:58;;;;;;;8.13;4.87;;;5.30;60.30;;;;;;4997217;28;20172;-84
2022/03/14 00:06:24;;;;;;;7.07;4.83;;;5.30;60.40;;;;;;4996818;28;20242;-84
2022/03/14 00:08:57;;;;;;;7.57;4.80;;;5.30;60.40;;;;;;4996865;28;20203;-83
2022/03/14 00:11:24;;;;;;;8.43;5.30;;;5.20;60.30;;;;;;4996847;28;20270;-85
2022/03/14 00:13:50;;;;;;;7.87;4.87;;;5.30;60.30;;;;;;4996736;28;20602;-84
2022/03/14 00:16:23;;;;;;;7.43;5.07;;;5.30;60.00;;;;;;4996049;28;20301;-82
2022/03/14 00:18:51;;;;;;;7.43;4.93;;;5.30;60.20;;;;;;4995559;28;20597;-82
2022/03/14 00:21:25;;;;;;;8.13;5.07;;;5.20;60.20;;;;;;4995322;28;20215;-84
2022/03/14 00:23:55;;;;;;;7.13;4.63;;;5.20;60.40;;;;;;4996569;28;20529;-85
2022/03/14 00:26:22;;;;;;;8.93;4.80;;;5.20;60.80;;;;;;4995162;28;20211;-83
2022/03/14 00:28:51;;;;;;;8.00;4.87;;;5.10;60.80;;;;;;4995394;28;20191;-84
2022/03/14 00:31:16;;;;;;;7.07;4.63;;;5.10;62.10;;;;;;4996525;28;20190;-84
2022/03/14 00:33:43;;;;;;;8.87;5.13;;;5.00;62.70;;;;;;4996515;28;20263;-84
2022/03/14 00:36:09;;;;;;;8.47;5.37;;;4.90;63.30;;;;;;4996384;28;20211;-84
2022/03/14 00:38:36;;;;;;;10.13;5.90;;;4.70;64.00;;;;;;4996309;28;20176;-83
2022/03/14 00:41:03;;;;;;;8.00;5.30;;;4.70;63.90;;;;;;4994944;28;20191;-84
2022/03/14 00:43:30;;;;;;;8.37;5.33;;;4.60;63.90;;;;;;4996458;28;20170;-85
2022/03/14 00:45:56;;;;;;;10.10;5.10;;;4.60;64.00;;;;;;4996294;28;20180;-84
2022/03/14 00:48:22;;;;;;;7.53;4.67;;;4.50;64.20;;;;;;4994183;28;20554;-84
2022/03/14 00:50:49;;;;;;;7.60;4.80;;;4.40;65.20;;;;;;4996287;28;20273;-84
2022/03/14 00:53:15;;;;;;;7.23;4.60;;;4.30;65.30;;;;;;4996206;28;20176;-83
2022/03/14 00:55:40;;;;;;;8.53;5.07;;;4.10;65.80;;;;;;4995791;28;20269;-84
2022/03/14 00:58:07;;;;;;;10.77;5.40;;;4.00;67.60;;;;;;4995969;28;20609;-81
2022/03/14 01:00:33;;;;;;;7.80;5.30;;;3.90;66.80;;;;;;4996051;28;20178;-84
2022/03/14 01:02:59;;;;;;;8.43;5.03;;;3.90;67.40;;;;;;4995729;28;20205;-85
2022/03/14 01:05:26;;;;;;;8.73;5.03;;;3.90;67.40;;;;;;4996197;28;20172;-85
2022/03/14 01:07:52;;;;;;;9.53;5.13;;;3.90;67.40;;;;;;4994576;28;20684;-85
2022/03/14 01:10:17;;;;;;;8.13;5.20;;;3.90;67.80;;;;;;4995563;28;20183;-84
2022/03/14 01:12:44;;;;;;;6.97;4.57;;;4.00;67.70;;;;;;4994718;28;20187;-84
2022/03/14 01:15:10;;;;;;;7.20;4.50;;;3.90;68.20;;;;;;4995402;28;20287;-84
2022/03/14 01:17:36;;;;;;;7.67;4.80;;;3.90;68.10;;;;;;4995434;28;20248;-82
2022/03/14 01:20:03;;;;;;;6.87;4.63;;;3.90;67.40;;;;;;4994419;28;20180;-84
2022/03/14 01:22:30;;;;;;;8.33;4.80;;;3.90;67.00;;;;;;4995548;28;20510;-83
2022/03/14 01:24:55;;;;;;;8.13;4.80;;;3.90;66.10;;;;;;4995408;28;20196;-82
2022/03/14 01:27:21;;;;;;;8.47;5.33;;;3.90;66.00;;;;;;4995148;28;20203;-83
2022/03/14 01:29:47;;;;;;;7.43;4.97;;;3.90;66.10;;;;;;4994836;28;20184;-84
2022/03/14 01:32:13;;;;;;;8.43;4.90;;;3.90;65.60;;;;;;4993804;28;20192;-82
2022/03/14 01:34:38;;;;;;;6.57;4.37;;;4.00;66.00;;;;;;4995455;28;20190;-84
2022/03/14 01:37:04;;;;;;;8.80;5.30;;;4.00;65.90;;;;;;4995334;28;20178;-84
2022/03/14 01:39:31;;;;;;;8.00;4.87;;;4.10;66.30;;;;;;4995516;28;20177;-83
2022/03/14 01:41:57;;;;;;;10.63;5.40;;;4.10;65.90;;;;;;4995118;28;20299;-83
2022/03/14 01:44:23;;;;;;;9.60;5.23;;;4.10;65.70;;;;;;4995263;28;20164;-85
2022/03/14 01:46:49;;;;;;;7.97;5.23;;;4.10;65.70;;;;;;4994094;28;20613;-84
2022/03/14 01:49:15;;;;;;;14.60;5.17;;;4.10;65.60;;;;;;4994415;28;20265;-84
2022/03/14 01:51:41;;;;;;;8.37;5.40;;;4.10;65.60;;;;;;4995068;28;20174;-84
2022/03/14 01:54:08;;;;;;;7.67;4.70;;;4.10;65.50;;;;;;4995308;28;20194;-84
2022/03/14 01:56:35;;;;;;;7.77;4.47;;;4.00;65.50;;;;;;4993367;28;20189;-83
2022/03/14 01:59:01;;;;;;;11.33;5.40;;;4.00;66.00;;;;;;4994990;28;20168;-83
2022/03/14 02:01:27;;;;;;;6.90;5.07;;;4.00;65.60;;;;;;4994799;28;20176;-83
2022/03/14 02:03:53;;;;;;;8.27;5.10;;;4.00;66.00;;;;;;4995347;28;20164;-85
2022/03/14 02:06:20;;;;;;;7.90;5.23;;;4.00;66.20;;;;;;4993646;28;20268;-84
2022/03/14 02:08:46;;;;;;;9.30;4.80;;;4.00;66.40;;;;;;4995205;28;20189;-84
2022/03/14 02:11:12;;;;;;;10.33;4.70;;;3.90;66.20;;;;;;4994814;28;20261;-84
2022/03/14 02:13:37;;;;;;;10.07;5.40;;;3.90;66.50;;;;;;4995009;28;20219;-80
2022/03/14 02:16:03;;;;;;;9.87;5.60;;;3.90;67.10;;;;;;4994710;28;20296;-79
2022/03/14 02:18:29;;;;;;;9.03;5.20;;;3.90;67.40;;;;;;4994846;28;20199;-79
2022/03/14 02:20:56;;;;;;;8.00;4.97;;;3.80;67.50;;;;;;4994709;28;20224;-79
2022/03/14 02:23:21;;;;;;;9.10;5.57;;;3.80;67.80;;;;;;4994798;28;20173;-79
2022/03/14 02:25:53;;;;;;;8.40;4.97;;;3.70;67.90;;;;;;4992973;28;20560;-79
2022/03/14 02:28:22;;;;;;;8.90;5.00;;;3.70;68.10;;;;;;5488493;22;20816;-87
2022/03/14 02:30:51;;;;;;;7.87;4.70;;;3.60;68.40;;;;;;5006620;28;20592;-89
2022/03/14 02:33:17;;;;;;;7.87;4.97;;;3.50;69.00;;;;;;5009647;28;20187;-87
2022/03/14 02:35:43;;;;;;;9.30;4.73;;;3.40;69.60;;;;;;5009512;28;20216;-86
2022/03/14 02:38:14;;;;;;;7.73;5.00;;;3.30;70.10;;;;;;5019591;28;20187;-86
2022/03/14 02:40:42;;;;;;;9.13;5.70;;;3.20;71.10;;;;;;5032030;28;20181;-85
2022/03/14 02:43:08;;;;;;;8.50;5.00;;;3.10;71.90;;;;;;5033501;28;20623;-84
2022/03/14 02:45:34;;;;;;;9.20;5.03;;;3.10;71.70;;;;;;5033785;28;20181;-87
2022/03/14 02:48:00;;;;;;;8.10;5.10;;;3.00;71.90;;;;;;5034064;28;20201;-85
2022/03/14 02:50:28;;;;;;;10.23;5.40;;;3.00;72.40;;;;;;5034230;28;20628;-86
2022/03/14 02:52:54;;;;;;;9.03;5.00;;;3.00;72.50;;;;;;5033149;28;20546;-85
2022/03/14 02:55:23;;;;;;;8.80;5.30;;;3.00;72.90;;;;;;5032633;28;20290;-87
2022/03/14 02:57:48;;;;;;;9.07;5.27;;;3.00;73.00;;;;;;5018364;28;20215;-85
2022/03/14 03:00:14;;;;;;;8.67;4.87;;;2.90;73.50;;;;;;5014475;28;20184;-86
2022/03/14 03:02:42;;;;;;;8.83;5.53;;;2.90;73.90;;;;;;5013198;28;20215;-88
2022/03/14 03:05:08;;;;;;;10.70;5.70;;;2.80;74.50;;;;;;5013209;28;20172;-85
2022/03/14 03:07:37;;;;;;;10.43;5.33;;;2.70;75.10;;;;;;5013299;28;20204;-85
2022/03/14 03:10:04;;;;;;;12.60;5.27;;;2.60;75.70;;;;;;5012847;28;20278;-86
2022/03/14 03:12:32;;;;;;;10.93;5.63;;;2.60;75.90;;;;;;5013108;28;20232;-87
2022/03/14 03:14:58;;;;;;;10.20;5.57;;;2.50;76.80;;;;;;5014000;28;20660;-86
2022/03/14 03:17:24;;;;;;;8.93;5.37;;;2.50;77.40;;;;;;5012736;28;20218;-85
2022/03/14 03:19:50;;;;;;;8.43;5.43;;;2.60;77.30;;;;;;5012887;28;20171;-86
2022/03/14 03:22:16;;;;;;;9.50;5.13;;;2.60;78.30;;;;;;5012911;28;20182;-87
2022/03/14 03:24:42;;;;;;;8.60;5.13;;;2.50;78.20;;;;;;5013052;28;20931;-86
2022/03/14 03:27:07;;;;;;;10.57;5.80;;;2.60;78.60;;;;;;5021544;28;20226;-88
2022/03/14 03:29:33;;;;;;;8.80;5.40;;;2.50;78.40;;;;;;5032321;28;20284;-86
2022/03/14 03:31:59;;;;;;;9.63;5.50;;;2.50;78.80;;;;;;5032437;28;20174;-85
2022/03/14 03:34:24;;;;;;;10.60;5.63;;;2.50;79.00;;;;;;5032277;28;20561;-85
2022/03/14 03:36:50;;;;;;;10.23;5.93;;;2.50;78.90;;;;;;5032231;28;20589;-87
2022/03/14 03:39:16;;;;;;;8.17;5.30;;;2.40;79.40;;;;;;5032114;28;20204;-85
2022/03/14 03:41:42;;;;;;;10.20;5.83;;;2.40;80.10;;;;;;5032298;28;20650;-88
2022/03/14 03:44:09;;;;;;;9.17;5.47;;;2.40;80.60;;;;;;5033907;28;20531;-87
2022/03/14 03:46:35;;;;;;;9.30;5.43;;;2.40;82.10;;;;;;5033357;28;20159;-86
2022/03/14 03:49:01;;;;;;;8.37;5.20;;;2.30;81.60;;;;;;5033268;28;20274;-86
2022/03/14 03:51:27;;;;;;;9.70;5.87;;;2.20;82.50;;;;;;5030970;28;20562;-86
2022/03/14 03:53:52;;;;;;;12.73;5.63;;;2.20;83.00;;;;;;5033301;28;20173;-86
2022/03/14 03:56:18;;;;;;;9.47;5.83;;;2.20;83.80;;;;;;5032750;28;20713;-86
2022/03/14 03:58:44;;;;;;;10.13;5.73;;;2.10;84.30;;;;;;5031581;28;20198;-84
2022/03/14 04:01:10;;;;;;;12.27;6.67;;;2.00;85.00;;;;;;5031910;28;20202;-86
2022/03/14 04:03:36;;;;;;;9.27;6.30;;;1.90;84.90;;;;;;5031570;28;20206;-84
2022/03/14 04:06:02;;;;;;;10.40;5.90;;;1.90;86.20;;;;;;5031581;28;20662;-86
2022/03/14 04:08:30;;;;;;;9.97;6.10;;;1.90;87.60;;;;;;5031613;28;20206;-85
2022/03/14 04:10:57;;;;;;;11.43;6.57;;;1.90;86.80;;;;;;5031812;28;20653;-86
2022/03/14 04:13:24;;;;;;;8.27;5.70;;;1.80;87.60;;;;;;5031657;28;20206;-85
2022/03/14 04:15:51;;;;;;;11.27;5.93;;;1.70;87.30;;;;;;5031456;28;20555;-84
2022/03/14 04:18:26;;;;;;;9.20;6.17;;;1.70;89.90;;;;;;5031401;28;20210;-84
2022/03/14 04:20:53;;;;;;;9.50;5.80;;;1.70;89.30;;;;;;5031378;28;20300;-85
2022/03/14 04:23:19;;;;;;;10.60;6.10;;;1.70;89.10;;;;;;5032955;28;20159;-84
2022/03/14 04:25:45;;;;;;;10.83;6.47;;;1.70;89.90;;;;;;5031241;28;20193;-83
2022/03/14 04:28:15;;;;;;;9.87;6.13;;;1.60;91.50;;;;;;5031053;28;20234;-84
2022/03/14 04:30:42;;;;;;;12.73;5.93;;;1.50;91.40;;;;;;5031438;28;20187;-85
2022/03/14 04:33:08;;;;;;;12.23;6.17;;;1.30;91.40;;;;;;5031501;28;20186;-85
2022/03/14 04:35:37;;;;;;;9.60;5.87;;;1.40;91.10;;;;;;5031145;28;20742;-84
2022/03/14 04:38:04;;;;;;;8.97;5.73;;;1.30;91.40;;;;;;5031308;28;20195;-85
2022/03/14 04:40:32;;;;;;;10.87;6.10;;;1.40;91.40;;;;;;5031125;28;20178;-86
2022/03/14 04:43:01;;;;;;;9.77;6.20;;;1.40;91.20;;;;;;5032721;28;20181;-85
2022/03/14 04:45:27;;;;;;;9.57;5.70;;;1.30;92.00;;;;;;5032569;28;20170;-84
2022/03/14 04:47:53;;;;;;;11.40;6.33;;;1.40;92.20;;;;;;5032295;28;20205;-84
2022/03/14 04:50:19;;;;;;;12.33;6.00;;;1.30;91.90;;;;;;5031383;28;20214;-85
2022/03/14 04:52:45;;;;;;;10.30;5.63;;;1.30;92.90;;;;;;5026544;28;20183;-86
2022/03/14 04:55:11;;;;;;;9.53;5.80;;;1.30;92.70;;;;;;5012351;28;20198;-84
2022/03/14 04:57:37;;;;;;;9.57;5.90;;;1.20;93.80;;;;;;5011565;28;20195;-85
2022/03/14 05:00:07;;;;;;;10.23;6.37;;;1.10;93.80;;;;;;5011265;28;20253;-85
2022/03/14 05:02:34;;;;;;;8.97;6.10;;;1.10;94.10;;;;;;5010408;28;20167;-84
2022/03/14 05:05:00;;;;;;;10.20;5.17;;;1.00;94.70;;;;;;5011770;28;20167;-84
2022/03/14 05:07:27;;;;;;;11.60;6.30;;;1.00;94.00;;;;;;5011358;28;20207;-85
2022/03/14 05:09:53;;;;;;;12.47;6.80;;;1.00;94.20;;;;;;5011313;28;20205;-84
2022/03/14 05:12:19;;;;;;;9.93;6.20;;;0.90;94.80;;;;;;5012630;28;20257;-84
2022/03/14 05:14:44;;;;;;;10.20;5.83;;;0.80;94.40;;;;;;5011150;28;20253;-85
2022/03/14 05:17:10;;;;;;;11.13;6.37;;;0.90;94.80;;;;;;5011194;28;20195;-84
2022/03/14 05:19:36;;;;;;;10.70;6.47;;;0.90;94.70;;;;;;5012730;28;20161;-84
2022/03/14 05:22:03;;;;;;;10.57;5.93;;;0.90;95.50;;;;;;5012853;28;20587;-84
2022/03/14 05:24:28;;;;;;;10.13;6.00;;;0.80;96.00;;;;;;5030830;28;20178;-84
2022/03/14 05:26:56;;;;;;;10.37;6.50;;;0.80;95.60;;;;;;5031116;28;20258;-84
2022/03/14 05:29:23;;;;;;;9.70;5.37;;;0.70;95.60;;;;;;5030653;28;20235;-84
2022/03/14 05:31:49;;;;;;;8.60;5.63;;;0.60;96.60;;;;;;5031349;28;20532;-85
2022/03/14 05:34:15;;;;;;;8.87;6.07;;;0.60;96.30;;;;;;5031151;28;20182;-85
2022/03/14 05:36:40;;;;;;;11.97;6.37;;;0.60;96.10;;;;;;5032008;28;20224;-87
2022/03/14 05:39:07;;;;;;;13.13;6.53;;;0.60;95.70;;;;;;5030877;28;20289;-83
2022/03/14 05:41:33;;;;;;;9.73;6.37;;;0.60;96.50;;;;;;5031852;28;20562;-84
2022/03/14 05:43:58;;;;;;;13.70;6.50;;;0.60;96.20;;;;;;5030995;28;20189;-85
2022/03/14 05:46:24;;;;;;;9.93;6.03;;;0.60;96.90;;;;;;5030727;28;20184;-85
2022/03/14 05:48:50;;;;;;;12.37;6.17;;;0.40;98.10;;;;;;5030615;28;20208;-84
2022/03/14 05:51:16;;;;;;;12.03;5.97;;;0.40;97.70;;;;;;5031843;28;20164;-85
2022/03/14 05:53:41;;;;;;;10.40;6.00;;;0.40;97.80;;;;;;5018916;28;20264;-86
2022/03/14 05:56:07;;;;;;;10.97;6.10;;;0.50;97.90;;;;;;5012184;28;20511;-84
2022/03/14 05:58:33;;;;;;;9.37;5.87;;;0.50;98.00;;;;;;5010813;28;20568;-85
2022/03/14 06:00:59;;;;;;;11.40;6.47;;;0.50;98.60;;;;;;5012094;28;20201;-84
2022/03/14 06:03:25;;;;;;;12.93;6.87;;;0.50;99.60;;;;;;5011773;28;20653;-85
2022/03/14 06:05:51;;;;;;;9.90;6.00;;;0.50;98.80;;;;;;5012257;28;20183;-85
2022/03/14 06:08:18;;;;;;;10.87;6.13;;;0.70;98.70;;;;;;5037797;28;20211;-86
2022/03/14 06:10:46;;;;;;;14.10;6.67;;;0.80;98.00;;;;;;5035339;28;20175;-85
2022/03/14 06:13:15;;;;;;;10.63;6.33;;;0.80;97.50;;;;;;5028770;28;20846;-85
2022/03/14 06:15:47;;;;;;;10.77;6.03;;;0.80;98.00;;;;;;5032834;28;20205;-85
2022/03/14 06:18:13;;;;;;;12.67;6.83;;;0.90;97.70;;;;;;5033084;28;20247;-84
2022/03/14 06:20:40;;;;;;;11.43;6.20;;;0.90;97.60;;;;;;5034459;28;20177;-85
2022/03/14 06:23:06;;;;;;;11.57;6.80;;;0.90;98.50;;;;;;5033897;28;20225;-85
2022/03/14 06:25:33;;;;;;;11.93;6.53;;;0.90;98.30;;;;;;5034013;28;20222;-85
2022/03/14 06:28:01;;;;;;;11.63;6.40;;;1.00;98.10;;;;;;5034278;28;20629;-85
2022/03/14 06:30:26;;;;;;;12.20;6.80;;;1.10;98.70;;;;;;5035855;28;20200;-86
2022/03/14 06:32:52;;;;;;;10.97;6.77;;;1.20;98.90;;;;;;5035717;28;20193;-84
2022/03/14 06:35:18;;;;;;;14.77;7.40;;;1.20;99.80;;;;;;5035630;28;20229;-84
2022/03/14 06:37:45;;;;;;;10.57;7.00;;;1.20;99.70;;;;;;5036571;28;20198;-84
2022/03/14 06:40:11;;;;;;;10.07;6.23;;;1.30;99.60;;;;;;5035566;28;20637;-85
2022/03/14 06:42:39;;;;;;;11.37;6.93;;;1.40;98.90;;;;;;5035409;28;20618;-84
2022/03/14 06:45:06;;;;;;;9.67;6.73;;;1.40;99.50;;;;;;5034589;28;20229;-85
2022/03/14 06:47:32;;;;;;;13.00;7.67;;;1.40;99.90;;;;;;5033238;28;20206;-85
2022/03/14 06:49:58;;;;;;;10.20;7.10;;;1.50;99.50;;;;;;5034000;28;20177;-84
2022/03/14 06:52:24;;;;;;;15.13;8.43;;;1.60;99.90;;;;;;5032409;28;20698;-85
2022/03/14 06:54:50;;;;;;;15.27;7.70;;;1.60;99.90;;;;;;5029933;28;20302;-84
2022/03/14 06:57:16;;;;;;;15.13;7.77;;;1.60;99.80;;;;;;5046686;28;20174;-84
2022/03/14 06:59:41;;;;;;;12.13;7.63;;;1.70;98.60;;;;;;5053107;28;20170;-84
2022/03/14 07:02:08;;;;;;;11.13;6.50;;;1.70;99.00;;;;;;5053227;28;20331;-86
2022/03/14 07:04:36;;;;;;;12.60;7.50;;;1.80;99.00;;;;;;5053166;28;20174;-83
2022/03/14 07:07:04;;;;;;;13.07;7.37;;;1.80;99.90;;;;;;5053042;28;20652;-85
2022/03/14 07:09:32;;;;;;;11.33;7.13;;;1.90;99.90;;;;;;5043492;28;20203;-84
2022/03/14 07:11:58;;;;;;;15.37;7.40;;;2.00;99.90;;;;;;5034627;28;20213;-84
2022/03/14 07:14:24;;;;;;;14.33;7.07;;;2.20;99.90;;;;;;5034949;28;20630;-85
2022/03/14 07:16:51;;;;;;;11.33;7.03;;;2.30;99.90;;;;;;5036133;28;20171;-84
2022/03/14 07:19:17;;;;;;;10.73;7.20;;;2.40;99.90;;;;;;5034687;28;20614;-86
2022/03/14 07:21:43;;;;;;;13.47;7.73;;;2.50;99.40;;;;;;5034715;28;20168;-84
2022/03/14 07:24:10;;;;;;;14.30;7.53;;;2.70;99.40;;;;;;5036318;28;20192;-84
2022/03/14 07:26:36;;;;;;;13.60;7.60;;;2.70;98.70;;;;;;5033469;28;20225;-85
2022/03/14 07:29:02;;;;;;;12.87;7.53;;;2.80;97.80;;;;;;5034163;28;20264;-84
2022/03/14 07:31:28;;;;;;;15.17;7.03;;;2.90;97.30;;;;;;5033821;28;20191;-85
2022/03/14 07:33:53;;;;;;;13.27;7.47;;;2.90;96.80;;;;;;5034409;28;20179;-84
2022/03/14 07:36:19;;;;;;;13.07;7.20;;;2.90;96.20;;;;;;5032241;28;20674;-84
2022/03/14 07:38:45;;;;;;;13.63;7.63;;;3.00;96.10;;;;;;5032724;28;20259;-84
2022/03/14 07:41:11;;;;;;;11.20;7.33;;;3.10;95.40;;;;;;5032307;28;20187;-83
2022/03/14 07:43:38;;;;;;;10.07;6.90;;;3.10;94.80;;;;;;5032188;28;20182;-85
2022/03/14 07:46:03;;;;;;;10.67;7.63;;;3.20;96.00;;;;;;5032796;28;20178;-86
2022/03/14 07:48:30;;;;;;;12.40;7.63;;;3.30;96.80;;;;;;5032284;28;20567;-85
2022/03/14 07:50:56;;;;;;;17.03;7.37;;;3.30;95.90;;;;;;5032597;28;20172;-86
2022/03/14 07:53:22;;;;;;;12.77;6.87;;;3.50;94.90;;;;;;5032444;28;20269;-85
2022/03/14 07:55:49;;;;;;;16.63;8.33;;;3.60;95.00;;;;;;5033924;28;20340;-86
2022/03/14 07:58:15;;;;;;;13.10;7.20;;;3.70;95.50;;;;;;5034595;28;20209;-85
2022/03/14 08:00:44;;;;;;;14.53;7.50;;;3.80;94.70;;;;;;5032629;28;20181;-84
2022/03/14 08:03:09;;;;;;;14.10;7.47;;;3.90;94.30;;;;;;5039624;28;20166;-84
2022/03/14 08:05:35;;;;;;;16.17;6.60;;;4.00;94.50;;;;;;5052105;28;20166;-85
2022/03/14 08:08:05;;;;;;;15.03;7.20;;;4.10;93.80;;;;;;5052994;28;20690;-84
2022/03/14 08:10:30;;;;;;;11.40;6.30;;;4.00;94.00;;;;;;5052668;28;20181;-85
2022/03/14 08:12:57;;;;;;;18.97;7.17;;;4.10;94.30;;;;;;5052985;28;20229;-84
2022/03/14 08:15:31;;;;;;;13.97;7.10;;;4.20;95.10;;;;;;5051807;28;20742;-87
2022/03/14 08:17:59;;;;;;;12.93;6.83;;;4.20;95.20;;;;;;5051678;28;20197;-83
2022/03/14 08:20:28;;;;;;;14.97;7.53;;;4.20;94.90;;;;;;5041469;28;20229;-84
2022/03/14 08:22:56;;;;;;;12.53;7.80;;;4.30;94.90;;;;;;5032017;28;20183;-85
2022/03/14 08:25:22;;;;;;;12.53;6.97;;;4.40;94.80;;;;;;5027044;28;20190;-85
2022/03/14 08:27:49;;;;;;;14.37;7.70;;;4.50;95.00;;;;;;5027545;28;20218;-84
2022/03/14 08:30:15;;;;;;;10.80;7.40;;;4.60;94.60;;;;;;5029924;28;20685;-85
2022/03/14 08:32:41;;;;;;;12.30;7.20;;;4.70;94.80;;;;;;5031166;28;20183;-85
2022/03/14 08:35:09;;;;;;;9.00;6.30;;;4.70;94.50;;;;;;5032503;28;20189;-85
2022/03/14 08:37:43;;;;;;;11.93;7.10;;;4.90;94.10;;;;;;5030905;28;20285;-84
2022/03/14 08:40:12;;;;;;;10.70;6.77;;;5.10;92.20;;;;;;5032416;28;20170;-84
2022/03/14 08:42:38;;;;;;;11.30;6.53;;;5.30;92.40;;;;;;5031183;28;20166;-84
2022/03/14 08:45:05;;;;;;;11.37;7.30;;;5.50;92.80;;;;;;5032283;28;20181;-87
2022/03/14 08:47:32;;;;;;;16.13;7.20;;;5.70;91.80;;;;;;5030426;28;20297;-88
2022/03/14 08:49:58;;;;;;;12.13;8.03;;;5.80;91.20;;;;;;5031088;28;20182;-88
2022/03/14 08:52:23;;;;;;;16.13;7.40;;;5.90;92.10;;;;;;5030834;28;20185;-88
2022/03/14 08:54:49;;;;;;;13.53;6.60;;;6.10;90.30;;;;;;5031517;28;20197;-88
2022/03/14 08:57:19;;;;;;;13.53;7.47;;;6.20;91.70;;;;;;5030576;28;20642;-88
2022/03/14 08:59:45;;;;;;;19.90;8.10;;;6.40;90.90;;;;;;5030446;28;20171;-86
2022/03/14 09:02:11;;;;;;;11.37;7.33;;;6.70;88.50;;;;;;5030408;28;20693;-87
2022/03/14 09:04:38;;;;;;;12.93;7.23;;;6.90;85.30;;;;;;5030268;28;20178;-88
2022/03/14 09:07:05;;;;;;;12.43;7.73;;;7.00;87.40;;;;;;5030436;28;20518;-87
2022/03/14 09:09:31;;;;;;;13.33;8.00;;;7.10;88.90;;;;;;5030474;28;20194;-88
2022/03/14 09:11:58;;;;;;;14.93;8.07;;;7.20;86.60;;;;;;5030174;28;20662;-88
2022/03/14 09:14:24;;;;;;;12.20;7.57;;;7.40;88.00;;;;;;5029603;28;20173;-85
2022/03/14 09:16:51;;;;;;;13.60;6.73;;;7.40;87.30;;;;;;5030220;28;20171;-87
2022/03/14 09:19:18;;;;;;;12.87;7.73;;;7.40;87.20;;;;;;5030579;28;20206;-88
2022/03/14 09:21:43;;;;;;;12.20;8.00;;;7.50;88.00;;;;;;5029992;28;20189;-87
2022/03/14 09:24:09;;;;;;;13.73;8.83;;;7.60;87.10;;;;;;5030824;28;20262;-85
2022/03/14 09:26:37;;;;;;;14.23;8.43;;;7.70;90.30;;;;;;5031747;28;20170;-87
2022/03/14 09:29:04;;;;;;;12.60;8.23;;;7.80;90.00;;;;;;5030938;28;20262;-86
2022/03/14 09:31:31;;;;;;;13.10;8.70;;;7.90;90.30;;;;;;5029904;28;20232;-87
2022/03/14 09:33:57;;;;;;;13.23;8.30;;;8.00;90.10;;;;;;5029939;28;20178;-87
2022/03/14 09:36:23;;;;;;;17.03;8.33;;;8.10;88.40;;;;;;5029810;28;20237;-87
2022/03/14 09:38:49;;;;;;;12.43;8.50;;;8.30;91.70;;;;;;5029998;28;20202;-86
2022/03/14 09:41:19;;;;;;;16.00;8.87;;;8.40;90.40;;;;;;5025671;28;20186;-88
2022/03/14 09:43:47;;;;;;;11.60;7.87;;;8.60;90.20;;;;;;5010117;28;20258;-88
2022/03/14 09:46:14;;;;;;;16.83;9.13;;;8.70;88.80;;;;;;5010632;28;20605;-89
2022/03/14 09:48:49;;;;;;;12.47;8.93;;;8.70;90.10;;;;;;5009571;28;20360;-85
2022/03/14 09:51:17;;;;;;;13.37;8.60;;;8.70;90.70;;;;;;5025958;28;20539;-89
2022/03/14 09:53:44;;;;;;;14.37;9.07;;;8.70;91.80;;;;;;5010152;28;20179;-86
2022/03/14 09:56:10;;;;;;;12.23;8.70;;;8.70;92.70;;;;;;5011311;28;20194;-88
2022/03/14 09:58:36;;;;;;;16.13;9.57;;;8.60;93.60;;;;;;5009721;28;20203;-88
2022/03/14 10:01:03;;;;;;;14.17;9.37;;;8.50;94.00;;;;;;5010021;28;20171;-87
2022/03/14 10:03:29;;;;;;;15.60;10.03;;;8.50;95.40;;;;;;5010367;28;20167;-87
2022/03/14 10:06:01;;;;;;;15.70;9.90;;;8.60;95.30;;;;;;5027451;28;20189;-87
2022/03/14 10:08:27;;;;;;;16.67;9.33;;;8.60;95.30;;;;;;5041211;28;20355;-85
2022/03/14 10:10:53;;;;;;;15.57;10.20;;;8.60;96.10;;;;;;5035986;28;20705;-85
2022/03/14 10:13:18;;;;;;;21.60;10.60;;;8.50;97.10;;;;;;5034009;28;20265;-87
2022/03/14 10:15:45;;;;;;;13.73;9.87;;;8.50;97.60;;;;;;5028346;28;20210;-87
2022/03/14 10:18:13;;;;;;;14.23;9.90;;;8.40;98.20;;;;;;5028904;28;20289;-90
2022/03/14 10:21:05;;;;;;;15.47;9.73;;;8.50;97.50;;;;;;5040356;28;20178;-87
2022/03/14 10:23:41;;;;;;;14.83;9.97;;;8.40;98.80;;;;;;5050288;28;20186;-86
2022/03/14 10:26:10;;;;;;;13.43;10.13;;;8.40;99.90;;;;;;5049956;28;20181;-87
2022/03/14 10:28:38;;;;;;;19.97;10.83;;;8.40;99.90;;;;;;5048853;28;20731;-87
2022/03/14 10:31:05;;;;;;;13.13;10.03;;;8.40;99.90;;;;;;5050004;28;20205;-88
2022/03/14 10:33:34;;;;;;;14.13;10.63;;;8.50;99.90;;;;;;5049295;28;20186;-86
2022/03/14 10:36:01;;;;;;;12.67;9.60;;;8.50;99.90;;;;;;5049578;28;20236;-85
2022/03/14 10:38:27;;;;;;;13.23;9.47;;;8.50;99.90;;;;;;5051341;28;20205;-86
2022/03/14 10:40:56;;;;;;;13.70;10.13;;;8.50;99.90;;;;;;5049548;28;20197;-88
2022/03/14 10:43:42;;;;;;;14.83;9.40;;;8.60;99.90;;;;;;5048894;28;20173;-86
2022/03/14 10:46:08;;;;;;;14.03;9.70;;;8.70;99.90;;;;;;5050624;28;20212;-88
2022/03/14 10:48:38;;;;;;;14.00;9.80;;;8.80;99.90;;;;;;5049557;28;20205;-87
2022/03/14 10:51:06;;;;;;;15.43;9.83;;;8.90;99.90;;;;;;5039647;28;20235;-91
2022/03/14 10:53:35;;;;;;;14.60;10.17;;;9.00;99.90;;;;;;5051194;28;20186;-85
2022/03/14 10:56:02;;;;;;;19.97;10.53;;;9.00;99.90;;;;;;5049485;28;20202;-90
2022/03/14 10:58:33;;;;;;;21.83;10.13;;;9.10;99.90;;;;;;5042694;28;20213;-87
2022/03/14 11:01:00;;;;;;;13.93;9.93;;;9.10;99.90;;;;;;5030544;28;20190;-87
2022/03/14 11:03:30;;;;;;;17.63;10.37;;;9.30;99.90;;;;;;5032856;28;20321;-87
2022/03/14 11:06:04;;;;;;;14.23;10.27;;;9.50;99.90;;;;;;5033098;28;20181;-88
2022/03/14 11:08:51;;;;;;;15.60;10.27;;;9.40;99.90;;;;;;5032886;28;20210;-88
2022/03/14 11:11:23;;;;;;;15.07;9.83;;;9.50;99.90;;;;;;5033026;28;20265;-88
2022/03/14 11:13:52;;;;;;;18.30;9.93;;;9.60;99.90;;;;;;5033371;28;20593;-88
2022/03/14 11:16:23;;;;;;;15.53;10.63;;;9.70;99.90;;;;;;5032564;28;20252;-89
2022/03/14 11:18:50;;;;;;;14.83;10.30;;;9.70;99.90;;;;;;5033358;28;20205;-88
2022/03/14 11:21:24;;;;;;;19.53;11.30;;;9.70;99.90;;;;;;5032467;28;20174;-90
2022/03/14 11:23:51;;;;;;;16.20;10.60;;;9.70;99.90;;;;;;5032842;28;20209;-87
2022/03/14 11:26:24;;;;;;;15.97;10.83;;;9.70;99.90;;;;;;5031773;28;20549;-87
2022/03/14 11:28:52;;;;;;;17.77;10.13;;;9.90;99.90;;;;;;5032833;28;20320;-86
2022/03/14 11:31:19;;;;;;;15.17;10.50;;;10.00;99.90;;;;;;5032753;28;20190;-85
2022/03/14 11:33:46;;;;;;;16.10;9.93;;;10.20;99.90;;;;;;5032581;28;20314;-86
2022/03/14 11:36:13;;;;;;;13.27;10.23;;;10.40;99.90;;;;;;5032016;28;20191;-86
2022/03/14 11:38:39;;;;;;;12.77;9.70;;;10.60;99.90;;;;;;5032515;28;20209;-90
2022/03/14 11:41:05;;;;;;;15.40;10.17;;;10.80;99.90;;;;;;5033642;28;20186;-87
2022/03/14 11:43:32;;;;;;;12.23;9.20;;;10.90;99.90;;;;;;5032288;28;20163;-88
2022/03/14 11:46:01;;;;;;;14.80;10.27;;;10.80;99.90;;;;;;5032896;28;20187;-88
2022/03/14 11:48:32;;;;;;;14.70;9.67;;;10.80;99.90;;;;;;5034571;28;20213;-87
2022/03/14 11:51:02;;;;;;;15.97;9.07;;;10.80;99.90;;;;;;5040837;28;20208;-87
2022/03/14 11:53:36;;;;;;;12.97;9.73;;;10.80;99.90;;;;;;5047999;28;20190;-89
2022/03/14 11:56:05;;;;;;;12.17;8.60;;;11.00;99.90;;;;;;5042146;28;20616;-88
2022/03/14 11:58:37;;;;;;;13.97;8.33;;;11.00;99.90;;;;;;5050601;28;20672;-88
2022/03/14 12:01:18;;;;;;;19.23;8.47;;;11.10;99.90;;;;;;5052021;28;20216;-86
2022/03/14 12:03:58;;;;;;;10.60;7.83;;;10.90;99.90;;;;;;5051040;28;20181;-86
2022/03/14 12:06:45;;;;;;;11.03;7.50;;;10.80;99.90;;;;;;5051505;28;20181;-86
2022/03/14 12:09:33;;;;;;;10.33;8.17;;;10.70;99.90;;;;;;5051069;28;20202;-88
2022/03/14 12:12:26;;;;;;;7.87;6.73;;;10.70;99.90;;;;;;5039774;28;20182;-87
2022/03/14 12:14:58;;;;;;;7.63;6.17;;;10.60;99.90;;;;;;5032934;28;20222;-89
2022/03/14 12:17:29;;;;;;;9.47;6.50;;;10.40;99.90;;;;;;5030500;28;20178;-85
2022/03/14 12:20:03;;;;;;;8.93;6.87;;;10.30;99.90;;;;;;5031955;28;20261;-88
2022/03/14 12:22:43;;;;;;;10.17;6.27;;;10.10;99.90;;;;;;5032486;28;20194;-88
2022/03/14 12:25:33;;;;;;;8.50;6.10;;;10.00;99.90;;;;;;5035389;28;20633;-85
2022/03/14 12:28:27;;;;;;;8.30;6.10;;;10.00;99.90;;;;;;5037060;28;20689;-87
2022/03/14 12:31:13;;;;;;;7.47;6.33;;;10.00;99.90;;;;;;5040362;28;20545;-88
2022/03/14 12:33:44;;;;;;;8.47;6.53;;;10.00;99.90;;;;;;5046557;28;20215;-86
2022/03/14 12:36:23;;;;;;;8.30;6.00;;;10.10;99.90;;;;;;5052745;28;20193;-86
2022/03/14 12:39:08;;;;;;;6.77;5.37;;;10.20;99.90;;;;;;5050767;28;20202;-87
2022/03/14 12:41:36;;;;;;;6.23;5.20;;;10.00;99.90;;;;;;5051150;28;20178;-86
2022/03/14 12:44:15;;;;;;;6.73;5.07;;;9.90;99.90;;;;;;5051122;28;20718;-86
2022/03/14 12:46:42;;;;;;;6.50;5.43;;;9.80;99.90;;;;;;5050508;28;20201;-84
2022/03/14 12:49:07;;;;;;;6.67;5.40;;;9.60;99.90;;;;;;5052445;28;20202;-86
2022/03/14 12:51:41;;;;;;;9.03;6.10;;;9.60;99.90;;;;;;5049842;28;20687;-89